sensor_id;sensor_type;location;lat;lon;timestamp;P1;durP1;ratioP1;P2;durP2;ratioP2
78013;SDS011;67222;50.182;8.734;2023-03-31T04:31:13;3.65;;;1.42;;
78013;SDS011;67222;50.182;8.734;2023-03-31T04:33:49;6.07;;;1.65;;
78013;SDS011;67222;50.182;8.734;2023-03-31T04:36:30;6.53;;;1.10;;
78013;SDS011;67222;50.182;8.734;2023-03-31T04:43:51;5.85;;;1.35;;
78013;SDS011;67222;50.182;8.734;2023-03-31T04:46:17;6.32;;;1.30;;
78013;SDS011;67222;50.182;8.734;2023-03-31T04:48:42;5.38;;;1.38;;
78013;SDS011;67222;50.182;8.734;2023-03-31T04:51:07;5.00;;;1.87;;
78013;SDS011;67222;50.182;8.734;2023-03-31T04:53:33;5.78;;;1.33;;
78013;SDS011;67222;50.182;8.734;2023-03-31T04:55:59;8.18;;;1.38;;
78013;SDS011;67222;50.182;8.734;2023-03-31T04:58:24;6.85;;;1.75;;
78013;SDS011;67222;50.182;8.734;2023-03-31T05:00:50;4.67;;;1.40;;
78013;SDS011;67222;50.182;8.734;2023-03-31T05:03:16;3.25;;;0.90;;
78013;SDS011;67222;50.182;8.734;2023-03-31T05:05:41;7.07;;;1.40;;
78013;SDS011;67222;50.182;8.734;2023-03-31T05:08:06;4.47;;;1.60;;
78013;SDS011;67222;50.182;8.734;2023-03-31T05:10:32;5.57;;;1.40;;
78013;SDS011;67222;50.182;8.734;2023-03-31T05:12:57;6.07;;;1.67;;
78013;SDS011;67222;50.182;8.734;2023-03-31T05:15:22;6.47;;;1.47;;
78013;SDS011;67222;50.182;8.734;2023-03-31T05:17:51;8.15;;;1.73;;
78013;SDS011;67222;50.182;8.734;2023-03-31T05:20:17;5.78;;;1.55;;
78013;SDS011;67222;50.182;8.734;2023-03-31T05:22:43;7.65;;;2.55;;
78013;SDS011;67222;50.182;8.734;2023-03-31T05:25:09;5.57;;;1.40;;
78013;SDS011;67222;50.182;8.734;2023-03-31T05:27:38;4.60;;;1.50;;
78013;SDS011;67222;50.182;8.734;2023-03-31T05:30:05;6.57;;;1.63;;
78013;SDS011;67222;50.182;8.734;2023-03-31T05:32:32;6.32;;;1.52;;
78013;SDS011;67222;50.182;8.734;2023-03-31T05:34:57;6.07;;;2.15;;
78013;SDS011;67222;50.182;8.734;2023-03-31T05:37:23;6.13;;;1.43;;
78013;SDS011;67222;50.182;8.734;2023-03-31T05:39:49;6.55;;;1.45;;
78013;SDS011;67222;50.182;8.734;2023-03-31T05:42:15;7.38;;;1.73;;
78013;SDS011;67222;50.182;8.734;2023-03-31T05:44:41;5.07;;;1.35;;
78013;SDS011;67222;50.182;8.734;2023-03-31T05:47:06;5.03;;;1.60;;
78013;SDS011;67222;50.182;8.734;2023-03-31T05:49:31;5.40;;;1.30;;
78013;SDS011;67222;50.182;8.734;2023-03-31T05:51:57;5.95;;;1.33;;
78013;SDS011;67222;50.182;8.734;2023-03-31T05:54:22;5.47;;;1.80;;
78013;SDS011;67222;50.182;8.734;2023-03-31T05:56:47;5.70;;;1.30;;
78013;SDS011;67222;50.182;8.734;2023-03-31T05:59:13;4.10;;;1.17;;
78013;SDS011;67222;50.182;8.734;2023-03-31T06:01:39;6.90;;;1.50;;
78013;SDS011;67222;50.182;8.734;2023-03-31T06:04:04;5.60;;;1.50;;
78013;SDS011;67222;50.182;8.734;2023-03-31T06:06:30;8.73;;;1.27;;
78013;SDS011;67222;50.182;8.734;2023-03-31T06:08:57;7.03;;;1.67;;
78013;SDS011;67222;50.182;8.734;2023-03-31T06:11:22;4.20;;;1.23;;
78013;SDS011;67222;50.182;8.734;2023-03-31T06:13:47;5.27;;;1.50;;
78013;SDS011;67222;50.182;8.734;2023-03-31T06:16:13;4.47;;;1.20;;
78013;SDS011;67222;50.182;8.734;2023-03-31T06:18:40;5.50;;;2.17;;
78013;SDS011;67222;50.182;8.734;2023-03-31T06:21:06;5.60;;;1.50;;
78013;SDS011;67222;50.182;8.734;2023-03-31T06:23:32;5.20;;;1.67;;
78013;SDS011;67222;50.182;8.734;2023-03-31T06:26:01;7.28;;;1.58;;
78013;SDS011;67222;50.182;8.734;2023-03-31T06:28:29;7.50;;;1.83;;
78013;SDS011;67222;50.182;8.734;2023-03-31T06:31:01;4.35;;;1.70;;
78013;SDS011;67222;50.182;8.734;2023-03-31T06:33:28;7.30;;;2.00;;
78013;SDS011;67222;50.182;8.734;2023-03-31T06:35:56;4.90;;;1.83;;
78013;SDS011;67222;50.182;8.734;2023-03-31T06:38:23;9.32;;;1.98;;
78013;SDS011;67222;50.182;8.734;2023-03-31T06:40:49;6.43;;;2.28;;
78013;SDS011;67222;50.182;8.734;2023-03-31T06:43:14;9.73;;;2.60;;
78013;SDS011;67222;50.182;8.734;2023-03-31T06:45:39;9.00;;;2.30;;
78013;SDS011;67222;50.182;8.734;2023-03-31T06:48:05;8.52;;;2.30;;
78013;SDS011;67222;50.182;8.734;2023-03-31T06:50:30;6.75;;;2.20;;
78013;SDS011;67222;50.182;8.734;2023-03-31T06:52:56;7.03;;;2.27;;
78013;SDS011;67222;50.182;8.734;2023-03-31T06:55:21;5.47;;;2.30;;
78013;SDS011;67222;50.182;8.734;2023-03-31T06:57:46;6.77;;;1.70;;
78013;SDS011;67222;50.182;8.734;2023-03-31T07:00:12;5.80;;;2.33;;
78013;SDS011;67222;50.182;8.734;2023-03-31T07:02:37;7.18;;;2.35;;
78013;SDS011;67222;50.182;8.734;2023-03-31T07:05:03;6.07;;;2.27;;
78013;SDS011;67222;50.182;8.734;2023-03-31T07:07:32;10.68;;;3.00;;
78013;SDS011;67222;50.182;8.734;2023-03-31T07:09:58;9.35;;;2.92;;
78013;SDS011;67222;50.182;8.734;2023-03-31T07:12:23;8.98;;;2.50;;
78013;SDS011;67222;50.182;8.734;2023-03-31T07:14:48;7.30;;;2.77;;
78013;SDS011;67222;50.182;8.734;2023-03-31T07:17:14;5.85;;;2.15;;
78013;SDS011;67222;50.182;8.734;2023-03-31T07:19:39;8.57;;;2.40;;
78013;SDS011;67222;50.182;8.734;2023-03-31T07:22:06;11.32;;;2.88;;
78013;SDS011;67222;50.182;8.734;2023-03-31T07:24:32;5.35;;;2.10;;
78013;SDS011;67222;50.182;8.734;2023-03-31T07:26:57;7.50;;;2.50;;
78013;SDS011;67222;50.182;8.734;2023-03-31T07:29:22;7.90;;;2.35;;
78013;SDS011;67222;50.182;8.734;2023-03-31T07:31:48;9.38;;;2.47;;
78013;SDS011;67222;50.182;8.734;2023-03-31T07:34:13;6.23;;;1.90;;
78013;SDS011;67222;50.182;8.734;2023-03-31T07:36:38;7.97;;;2.07;;
78013;SDS011;67222;50.182;8.734;2023-03-31T07:39:04;6.90;;;2.25;;
78013;SDS011;67222;50.182;8.734;2023-03-31T07:41:30;5.80;;;2.45;;
78013;SDS011;67222;50.182;8.734;2023-03-31T07:43:56;7.88;;;2.88;;
78013;SDS011;67222;50.182;8.734;2023-03-31T07:46:22;6.60;;;2.40;;
78013;SDS011;67222;50.182;8.734;2023-03-31T07:48:50;8.07;;;2.90;;
78013;SDS011;67222;50.182;8.734;2023-03-31T07:51:18;7.07;;;2.75;;
78013;SDS011;67222;50.182;8.734;2023-03-31T07:53:46;6.65;;;3.03;;
78013;SDS011;67222;50.182;8.734;2023-03-31T07:56:13;6.90;;;3.08;;
78013;SDS011;67222;50.182;8.734;2023-03-31T07:58:40;9.30;;;3.28;;
78013;SDS011;67222;50.182;8.734;2023-03-31T08:01:06;5.63;;;2.72;;
78013;SDS011;67222;50.182;8.734;2023-03-31T08:03:32;7.22;;;2.60;;
78013;SDS011;67222;50.182;8.734;2023-03-31T08:05:58;5.43;;;2.95;;
78013;SDS011;67222;50.182;8.734;2023-03-31T08:08:24;6.88;;;2.40;;
78013;SDS011;67222;50.182;8.734;2023-03-31T08:10:49;7.00;;;2.72;;
78013;SDS011;67222;50.182;8.734;2023-03-31T08:13:14;6.50;;;2.38;;
78013;SDS011;67222;50.182;8.734;2023-03-31T08:15:40;8.07;;;2.40;;
78013;SDS011;67222;50.182;8.734;2023-03-31T08:18:05;5.40;;;2.37;;
78013;SDS011;67222;50.182;8.734;2023-03-31T08:20:31;6.55;;;2.63;;
78013;SDS011;67222;50.182;8.734;2023-03-31T08:22:56;7.20;;;2.42;;
78013;SDS011;67222;50.182;8.734;2023-03-31T08:25:22;4.17;;;2.40;;
78013;SDS011;67222;50.182;8.734;2023-03-31T08:27:47;5.68;;;2.47;;
78013;SDS011;67222;50.182;8.734;2023-03-31T08:30:15;5.30;;;2.50;;
78013;SDS011;67222;50.182;8.734;2023-03-31T08:32:42;6.22;;;2.75;;
78013;SDS011;67222;50.182;8.734;2023-03-31T08:35:08;6.60;;;2.75;;
78013;SDS011;67222;50.182;8.734;2023-03-31T08:37:34;5.20;;;2.58;;
78013;SDS011;67222;50.182;8.734;2023-03-31T08:40:00;9.00;;;3.08;;
78013;SDS011;67222;50.182;8.734;2023-03-31T08:45:01;5.35;;;2.97;;
78013;SDS011;67222;50.182;8.734;2023-03-31T08:47:52;6.85;;;2.60;;
78013;SDS011;67222;50.182;8.734;2023-03-31T08:50:26;7.07;;;3.40;;
78013;SDS011;67222;50.182;8.734;2023-03-31T08:53:07;5.65;;;3.10;;
78013;SDS011;67222;50.182;8.734;2023-03-31T08:55:48;6.25;;;2.80;;
78013;SDS011;67222;50.182;8.734;2023-03-31T08:58:25;4.65;;;2.58;;
78013;SDS011;67222;50.182;8.734;2023-03-31T09:01:18;5.07;;;2.30;;
78013;SDS011;67222;50.182;8.734;2023-03-31T09:06:38;5.75;;;2.03;;
78013;SDS011;67222;50.182;8.734;2023-03-31T09:09:10;5.10;;;2.22;;
78013;SDS011;67222;50.182;8.734;2023-03-31T09:11:47;5.93;;;2.22;;
78013;SDS011;67222;50.182;8.734;2023-03-31T09:19:48;6.10;;;2.50;;
78013;SDS011;67222;50.182;8.734;2023-03-31T09:22:17;5.03;;;2.17;;
78013;SDS011;67222;50.182;8.734;2023-03-31T09:24:48;6.25;;;2.40;;
78013;SDS011;67222;50.182;8.734;2023-03-31T09:27:17;4.45;;;2.00;;
78013;SDS011;67222;50.182;8.734;2023-03-31T09:32:20;6.60;;;2.20;;
78013;SDS011;67222;50.182;8.734;2023-03-31T09:34:52;5.85;;;2.00;;
78013;SDS011;67222;50.182;8.734;2023-03-31T09:37:24;4.50;;;2.35;;
78013;SDS011;67222;50.182;8.734;2023-03-31T09:39:52;7.28;;;2.10;;
78013;SDS011;67222;50.182;8.734;2023-03-31T09:42:18;5.93;;;2.58;;
78013;SDS011;67222;50.182;8.734;2023-03-31T09:44:44;5.78;;;1.95;;
78013;SDS011;67222;50.182;8.734;2023-03-31T09:49:49;6.78;;;1.90;;
78013;SDS011;67222;50.182;8.734;2023-03-31T09:54:59;4.40;;;1.73;;
78013;SDS011;67222;50.182;8.734;2023-03-31T09:57:30;4.57;;;2.20;;
78013;SDS011;67222;50.182;8.734;2023-03-31T10:00:00;4.22;;;1.85;;
78013;SDS011;67222;50.182;8.734;2023-03-31T10:02:38;6.45;;;2.00;;
78013;SDS011;67222;50.182;8.734;2023-03-31T10:05:17;4.38;;;1.92;;
78013;SDS011;67222;50.182;8.734;2023-03-31T10:10:44;4.72;;;1.40;;
78013;SDS011;67222;50.182;8.734;2023-03-31T10:13:15;4.45;;;1.75;;
78013;SDS011;67222;50.182;8.734;2023-03-31T10:15:43;5.35;;;1.60;;
78013;SDS011;67222;50.182;8.734;2023-03-31T10:18:15;4.72;;;1.88;;
78013;SDS011;67222;50.182;8.734;2023-03-31T10:20:49;6.20;;;1.80;;
78013;SDS011;67222;50.182;8.734;2023-03-31T10:25:50;3.97;;;1.60;;
78013;SDS011;67222;50.182;8.734;2023-03-31T10:28:17;6.88;;;1.50;;
78013;SDS011;67222;50.182;8.734;2023-03-31T10:30:51;7.47;;;1.70;;
78013;SDS011;67222;50.182;8.734;2023-03-31T10:33:19;7.40;;;1.80;;
78013;SDS011;67222;50.182;8.734;2023-03-31T10:35:49;6.28;;;1.70;;
78013;SDS011;67222;50.182;8.734;2023-03-31T10:38:27;7.43;;;1.98;;
78013;SDS011;67222;50.182;8.734;2023-03-31T10:40:56;8.18;;;1.67;;
78013;SDS011;67222;50.182;8.734;2023-03-31T10:43:29;5.55;;;1.42;;
78013;SDS011;67222;50.182;8.734;2023-03-31T10:45:58;3.97;;;1.23;;
78013;SDS011;67222;50.182;8.734;2023-03-31T10:48:26;3.03;;;0.60;;
78013;SDS011;67222;50.182;8.734;2023-03-31T10:51:01;1.77;;;0.57;;
78013;SDS011;67222;50.182;8.734;2023-03-31T10:53:38;3.50;;;0.60;;
78013;SDS011;67222;50.182;8.734;2023-03-31T10:59:05;3.28;;;0.80;;
78013;SDS011;67222;50.182;8.734;2023-03-31T11:05:04;4.07;;;0.65;;
78013;SDS011;67222;50.182;8.734;2023-03-31T11:16:08;4.32;;;0.75;;
78013;SDS011;67222;50.182;8.734;2023-03-31T11:24:38;3.88;;;0.70;;
78013;SDS011;67222;50.182;8.734;2023-03-31T11:28:12;2.83;;;0.60;;
78013;SDS011;67222;50.182;8.734;2023-03-31T11:46:24;2.55;;;0.70;;
78013;SDS011;67222;50.182;8.734;2023-03-31T11:48:57;3.22;;;0.85;;
78013;SDS011;67222;50.182;8.734;2023-03-31T11:53:55;2.83;;;0.60;;
78013;SDS011;67222;50.182;8.734;2023-03-31T11:56:23;3.17;;;0.80;;
78013;SDS011;67222;50.182;8.734;2023-03-31T11:58:59;5.70;;;1.13;;
78013;SDS011;67222;50.182;8.734;2023-03-31T12:01:28;4.13;;;0.90;;
78013;SDS011;67222;50.182;8.734;2023-03-31T12:07:27;5.18;;;0.80;;
78013;SDS011;67222;50.182;8.734;2023-03-31T12:10:04;6.47;;;1.10;;
78013;SDS011;67222;50.182;8.734;2023-03-31T12:15:22;6.28;;;1.20;;
78013;SDS011;67222;50.182;8.734;2023-03-31T12:20:56;7.88;;;1.10;;
78013;SDS011;67222;50.182;8.734;2023-03-31T12:23:26;5.22;;;0.90;;
78013;SDS011;67222;50.182;8.734;2023-03-31T12:26:11;5.38;;;1.08;;
78013;SDS011;67222;50.182;8.734;2023-03-31T12:28:47;3.38;;;0.77;;
78013;SDS011;67222;50.182;8.734;2023-03-31T12:31:20;4.78;;;1.00;;
78013;SDS011;67222;50.182;8.734;2023-03-31T12:33:54;9.02;;;1.70;;
78013;SDS011;67222;50.182;8.734;2023-03-31T12:39:21;3.75;;;1.00;;
78013;SDS011;67222;50.182;8.734;2023-03-31T12:50:30;3.83;;;1.00;;
78013;SDS011;67222;50.182;8.734;2023-03-31T12:55:56;3.40;;;0.70;;
78013;SDS011;67222;50.182;8.734;2023-03-31T13:14:01;2.17;;;0.60;;
78013;SDS011;67222;50.182;8.734;2023-03-31T13:16:45;6.55;;;0.90;;
78013;SDS011;67222;50.182;8.734;2023-03-31T13:19:25;3.58;;;0.70;;
78013;SDS011;67222;50.182;8.734;2023-03-31T13:21:56;4.47;;;0.93;;
78013;SDS011;67222;50.182;8.734;2023-03-31T13:24:27;4.05;;;0.65;;
78013;SDS011;67222;50.182;8.734;2023-03-31T13:26:55;6.13;;;0.98;;
78013;SDS011;67222;50.182;8.734;2023-03-31T13:29:24;3.47;;;0.60;;
78013;SDS011;67222;50.182;8.734;2023-03-31T13:34:35;2.57;;;0.50;;
78013;SDS011;67222;50.182;8.734;2023-03-31T13:37:17;3.00;;;1.05;;
78013;SDS011;67222;50.182;8.734;2023-03-31T13:40:17;6.20;;;1.13;;
78013;SDS011;67222;50.182;8.734;2023-03-31T13:48:36;4.55;;;0.63;;
78013;SDS011;67222;50.182;8.734;2023-03-31T13:59:13;4.45;;;0.65;;
78013;SDS011;67222;50.182;8.734;2023-03-31T14:02:31;1.80;;;0.30;;
78013;SDS011;67222;50.182;8.734;2023-03-31T14:05:27;2.08;;;0.43;;
78013;SDS011;67222;50.182;8.734;2023-03-31T14:08:10;1.42;;;0.30;;
78013;SDS011;67222;50.182;8.734;2023-03-31T14:10:48;1.25;;;0.17;;
78013;SDS011;67222;50.182;8.734;2023-03-31T14:13:14;0.83;;;0.10;;
78013;SDS011;67222;50.182;8.734;2023-03-31T14:15:48;2.70;;;0.63;;
78013;SDS011;67222;50.182;8.734;2023-03-31T14:18:26;0.52;;;0.20;;
78013;SDS011;67222;50.182;8.734;2023-03-31T14:24:13;1.45;;;0.30;;
78013;SDS011;67222;50.182;8.734;2023-03-31T14:26:52;0.93;;;0.25;;
78013;SDS011;67222;50.182;8.734;2023-03-31T14:29:40;2.50;;;0.30;;
78013;SDS011;67222;50.182;8.734;2023-03-31T14:32:18;4.45;;;1.08;;
78013;SDS011;67222;50.182;8.734;2023-03-31T14:37:21;2.10;;;0.30;;
78013;SDS011;67222;50.182;8.734;2023-03-31T14:39:48;1.02;;;0.38;;
78013;SDS011;67222;50.182;8.734;2023-03-31T14:42:18;2.78;;;0.47;;
78013;SDS011;67222;50.182;8.734;2023-03-31T14:45:01;2.90;;;0.40;;
78013;SDS011;67222;50.182;8.734;2023-03-31T14:47:28;1.75;;;0.30;;
78013;SDS011;67222;50.182;8.734;2023-03-31T14:50:01;3.65;;;0.57;;
78013;SDS011;67222;50.182;8.734;2023-03-31T14:52:36;2.05;;;0.50;;
78013;SDS011;67222;50.182;8.734;2023-03-31T14:55:02;2.47;;;0.60;;
78013;SDS011;67222;50.182;8.734;2023-03-31T14:57:31;2.97;;;0.57;;
78013;SDS011;67222;50.182;8.734;2023-03-31T14:59:59;5.25;;;0.70;;
78013;SDS011;67222;50.182;8.734;2023-03-31T15:02:31;2.75;;;0.50;;
78013;SDS011;67222;50.182;8.734;2023-03-31T15:05:00;1.83;;;0.40;;
78013;SDS011;67222;50.182;8.734;2023-03-31T15:07:28;2.80;;;0.50;;
78013;SDS011;67222;50.182;8.734;2023-03-31T15:09:54;2.65;;;0.60;;
78013;SDS011;67222;50.182;8.734;2023-03-31T15:12:19;1.98;;;0.50;;
78013;SDS011;67222;50.182;8.734;2023-03-31T15:14:47;2.47;;;0.52;;
78013;SDS011;67222;50.182;8.734;2023-03-31T15:17:22;1.83;;;0.50;;
78013;SDS011;67222;50.182;8.734;2023-03-31T15:19:54;2.40;;;0.77;;
78013;SDS011;67222;50.182;8.734;2023-03-31T15:22:21;3.38;;;1.10;;
78013;SDS011;67222;50.182;8.734;2023-03-31T15:24:51;2.80;;;0.95;;
78013;SDS011;67222;50.182;8.734;2023-03-31T15:29:55;2.70;;;0.60;;
78013;SDS011;67222;50.182;8.734;2023-03-31T15:34:53;3.97;;;0.55;;
78013;SDS011;67222;50.182;8.734;2023-03-31T15:37:21;2.50;;;0.50;;
78013;SDS011;67222;50.182;8.734;2023-03-31T15:39:57;1.92;;;0.40;;
78013;SDS011;67222;50.182;8.734;2023-03-31T15:42:25;1.67;;;0.50;;
78013;SDS011;67222;50.182;8.734;2023-03-31T15:44:55;1.42;;;0.20;;
78013;SDS011;67222;50.182;8.734;2023-03-31T15:47:48;2.90;;;0.32;;
78013;SDS011;67222;50.182;8.734;2023-03-31T15:50:15;3.75;;;0.40;;
78013;SDS011;67222;50.182;8.734;2023-03-31T15:52:46;1.85;;;0.45;;
78013;SDS011;67222;50.182;8.734;2023-03-31T15:55:38;1.75;;;0.30;;
78013;SDS011;67222;50.182;8.734;2023-03-31T15:58:05;2.40;;;0.50;;
78013;SDS011;67222;50.182;8.734;2023-03-31T16:00:50;1.92;;;0.57;;
78013;SDS011;67222;50.182;8.734;2023-03-31T16:03:17;1.35;;;0.40;;
78013;SDS011;67222;50.182;8.734;2023-03-31T16:05:54;3.03;;;0.30;;
78013;SDS011;67222;50.182;8.734;2023-03-31T16:10:52;3.22;;;0.40;;
78013;SDS011;67222;50.182;8.734;2023-03-31T16:13:40;1.80;;;0.70;;
78013;SDS011;67222;50.182;8.734;2023-03-31T16:16:11;3.97;;;1.23;;
78013;SDS011;67222;50.182;8.734;2023-03-31T16:18:39;2.22;;;0.60;;
78013;SDS011;67222;50.182;8.734;2023-03-31T16:21:10;3.83;;;0.60;;
78013;SDS011;67222;50.182;8.734;2023-03-31T16:23:38;2.35;;;0.60;;
78013;SDS011;67222;50.182;8.734;2023-03-31T16:26:05;2.90;;;0.63;;
78013;SDS011;67222;50.182;8.734;2023-03-31T16:28:32;1.98;;;0.38;;
78013;SDS011;67222;50.182;8.734;2023-03-31T16:31:00;2.72;;;0.75;;
78013;SDS011;67222;50.182;8.734;2023-03-31T16:33:26;3.15;;;1.23;;
78013;SDS011;67222;50.182;8.734;2023-03-31T16:35:54;3.72;;;0.50;;
78013;SDS011;67222;50.182;8.734;2023-03-31T16:38:23;4.32;;;0.88;;
78013;SDS011;67222;50.182;8.734;2023-03-31T16:40:54;2.28;;;0.63;;
78013;SDS011;67222;50.182;8.734;2023-03-31T16:43:22;2.08;;;0.40;;
78013;SDS011;67222;50.182;8.734;2023-03-31T16:45:49;3.25;;;0.60;;
78013;SDS011;67222;50.182;8.734;2023-03-31T16:48:16;4.07;;;0.73;;
78013;SDS011;67222;50.182;8.734;2023-03-31T16:50:47;4.18;;;0.75;;
78013;SDS011;67222;50.182;8.734;2023-03-31T16:53:15;2.17;;;0.60;;
78013;SDS011;67222;50.182;8.734;2023-03-31T16:55:42;3.47;;;0.50;;
78013;SDS011;67222;50.182;8.734;2023-03-31T16:58:08;6.00;;;0.88;;
78013;SDS011;67222;50.182;8.734;2023-03-31T17:00:34;3.15;;;1.05;;
78013;SDS011;67222;50.182;8.734;2023-03-31T17:03:00;4.93;;;0.93;;
78013;SDS011;67222;50.182;8.734;2023-03-31T17:05:29;5.68;;;0.90;;
78013;SDS011;67222;50.182;8.734;2023-03-31T17:07:57;3.92;;;0.90;;
78013;SDS011;67222;50.182;8.734;2023-03-31T17:10:22;4.35;;;1.00;;
78013;SDS011;67222;50.182;8.734;2023-03-31T17:12:48;4.65;;;0.60;;
78013;SDS011;67222;50.182;8.734;2023-03-31T17:15:13;4.73;;;0.80;;
78013;SDS011;67222;50.182;8.734;2023-03-31T17:17:39;4.43;;;0.70;;
78013;SDS011;67222;50.182;8.734;2023-03-31T17:20:04;2.92;;;0.85;;
78013;SDS011;67222;50.182;8.734;2023-03-31T17:22:31;5.88;;;0.95;;
78013;SDS011;67222;50.182;8.734;2023-03-31T17:24:57;7.53;;;1.10;;
78013;SDS011;67222;50.182;8.734;2023-03-31T17:27:23;2.30;;;0.65;;
78013;SDS011;67222;50.182;8.734;2023-03-31T17:29:49;4.00;;;1.25;;
78013;SDS011;67222;50.182;8.734;2023-03-31T17:32:14;5.25;;;0.80;;
78013;SDS011;67222;50.182;8.734;2023-03-31T17:34:41;4.05;;;1.15;;
78013;SDS011;67222;50.182;8.734;2023-03-31T17:37:07;5.85;;;1.08;;
78013;SDS011;67222;50.182;8.734;2023-03-31T17:39:32;4.47;;;1.90;;
78013;SDS011;67222;50.182;8.734;2023-03-31T17:41:57;2.63;;;0.87;;
78013;SDS011;67222;50.182;8.734;2023-03-31T17:44:23;4.38;;;0.98;;
78013;SDS011;67222;50.182;8.734;2023-03-31T17:46:48;3.53;;;0.70;;
78013;SDS011;67222;50.182;8.734;2023-03-31T17:49:13;3.80;;;1.23;;
78013;SDS011;67222;50.182;8.734;2023-03-31T17:51:41;4.07;;;1.05;;
78013;SDS011;67222;50.182;8.734;2023-03-31T17:54:07;3.92;;;0.80;;
78013;SDS011;67222;50.182;8.734;2023-03-31T17:56:32;2.83;;;0.77;;
78013;SDS011;67222;50.182;8.734;2023-03-31T17:58:58;4.00;;;0.80;;
78013;SDS011;67222;50.182;8.734;2023-03-31T18:01:23;4.53;;;1.30;;
78013;SDS011;67222;50.182;8.734;2023-03-31T18:03:49;3.15;;;0.80;;
78013;SDS011;67222;50.182;8.734;2023-03-31T18:06:14;3.97;;;0.90;;
78013;SDS011;67222;50.182;8.734;2023-03-31T18:08:41;4.22;;;1.00;;
78013;SDS011;67222;50.182;8.734;2023-03-31T18:11:07;4.83;;;1.07;;
78013;SDS011;67222;50.182;8.734;2023-03-31T18:13:33;6.82;;;3.30;;
78013;SDS011;67222;50.182;8.734;2023-03-31T18:16:00;6.40;;;1.95;;
78013;SDS011;67222;50.182;8.734;2023-03-31T18:18:26;4.63;;;1.60;;
78013;SDS011;67222;50.182;8.734;2023-03-31T18:20:52;4.68;;;1.05;;
78013;SDS011;67222;50.182;8.734;2023-03-31T18:23:18;6.38;;;1.20;;
78013;SDS011;67222;50.182;8.734;2023-03-31T18:25:44;3.47;;;0.82;;
78013;SDS011;67222;50.182;8.734;2023-03-31T18:28:11;3.78;;;1.00;;
78013;SDS011;67222;50.182;8.734;2023-03-31T18:30:37;4.55;;;1.40;;
78013;SDS011;67222;50.182;8.734;2023-03-31T18:33:03;7.13;;;1.45;;
78013;SDS011;67222;50.182;8.734;2023-03-31T18:35:29;4.13;;;1.08;;
78013;SDS011;67222;50.182;8.734;2023-03-31T18:37:54;4.82;;;1.02;;
78013;SDS011;67222;50.182;8.734;2023-03-31T18:40:20;4.22;;;0.82;;
78013;SDS011;67222;50.182;8.734;2023-03-31T18:42:46;4.60;;;0.80;;
78013;SDS011;67222;50.182;8.734;2023-03-31T18:45:12;4.93;;;1.10;;
78013;SDS011;67222;50.182;8.734;2023-03-31T18:47:37;4.80;;;1.33;;
78013;SDS011;67222;50.182;8.734;2023-03-31T18:50:03;6.05;;;1.08;;
78013;SDS011;67222;50.182;8.734;2023-03-31T18:52:28;7.43;;;1.33;;
78013;SDS011;67222;50.182;8.734;2023-03-31T18:54:54;4.33;;;1.00;;
78013;SDS011;67222;50.182;8.734;2023-03-31T18:57:19;4.68;;;1.10;;
78013;SDS011;67222;50.182;8.734;2023-03-31T18:59:45;4.93;;;1.17;;
78013;SDS011;67222;50.182;8.734;2023-03-31T19:02:14;3.60;;;0.70;;
78013;SDS011;67222;50.182;8.734;2023-03-31T19:04:42;4.78;;;1.08;;
78013;SDS011;67222;50.182;8.734;2023-03-31T19:07:11;3.55;;;1.02;;
78013;SDS011;67222;50.182;8.734;2023-03-31T19:09:36;2.40;;;0.93;;
78013;SDS011;67222;50.182;8.734;2023-03-31T19:12:02;5.20;;;1.42;;
78013;SDS011;67222;50.182;8.734;2023-03-31T19:14:28;4.90;;;1.10;;
78013;SDS011;67222;50.182;8.734;2023-03-31T19:16:54;2.90;;;0.85;;
78013;SDS011;67222;50.182;8.734;2023-03-31T19:19:19;6.50;;;1.30;;
78013;SDS011;67222;50.182;8.734;2023-03-31T19:21:45;5.07;;;1.00;;
78013;SDS011;67222;50.182;8.734;2023-03-31T19:24:10;7.88;;;1.10;;
78013;SDS011;67222;50.182;8.734;2023-03-31T19:26:35;7.78;;;1.20;;
78013;SDS011;67222;50.182;8.734;2023-03-31T19:29:01;6.25;;;1.27;;
78013;SDS011;67222;50.182;8.734;2023-03-31T19:31:29;4.05;;;1.30;;
78013;SDS011;67222;50.182;8.734;2023-03-31T19:33:57;3.75;;;0.93;;
78013;SDS011;67222;50.182;8.734;2023-03-31T19:36:22;4.28;;;0.90;;
78013;SDS011;67222;50.182;8.734;2023-03-31T19:38:48;3.90;;;1.00;;
78013;SDS011;67222;50.182;8.734;2023-03-31T19:41:14;3.20;;;1.00;;
78013;SDS011;67222;50.182;8.734;2023-03-31T19:43:42;3.65;;;1.30;;
78013;SDS011;67222;50.182;8.734;2023-03-31T19:46:07;3.20;;;0.90;;
78013;SDS011;67222;50.182;8.734;2023-03-31T19:48:32;2.90;;;0.70;;
78013;SDS011;67222;50.182;8.734;2023-03-31T19:50:58;4.20;;;0.80;;
78013;SDS011;67222;50.182;8.734;2023-03-31T19:53:25;3.80;;;0.88;;
78013;SDS011;67222;50.182;8.734;2023-03-31T19:55:55;3.65;;;0.77;;
78013;SDS011;67222;50.182;8.734;2023-03-31T19:58:21;3.63;;;1.10;;
78013;SDS011;67222;50.182;8.734;2023-03-31T20:00:49;3.08;;;0.88;;
78013;SDS011;67222;50.182;8.734;2023-03-31T20:03:15;3.60;;;0.88;;
78013;SDS011;67222;50.182;8.734;2023-03-31T20:05:40;4.07;;;0.90;;
78013;SDS011;67222;50.182;8.734;2023-03-31T20:08:06;3.08;;;0.95;;
78013;SDS011;67222;50.182;8.734;2023-03-31T20:10:31;5.70;;;1.25;;
78013;SDS011;67222;50.182;8.734;2023-03-31T20:12:56;3.87;;;0.60;;
78013;SDS011;67222;50.182;8.734;2023-03-31T20:15:22;2.07;;;0.77;;
78013;SDS011;67222;50.182;8.734;2023-03-31T20:17:47;3.03;;;0.70;;
78013;SDS011;67222;50.182;8.734;2023-03-31T20:20:13;3.83;;;0.70;;
78013;SDS011;67222;50.182;8.734;2023-03-31T20:22:38;5.37;;;1.00;;
78013;SDS011;67222;50.182;8.734;2023-03-31T20:25:05;4.15;;;1.10;;
78013;SDS011;67222;50.182;8.734;2023-03-31T20:27:31;4.63;;;0.95;;
78013;SDS011;67222;50.182;8.734;2023-03-31T20:29:56;3.10;;;0.97;;
78013;SDS011;67222;50.182;8.734;2023-03-31T20:32:21;2.43;;;0.70;;
78013;SDS011;67222;50.182;8.734;2023-03-31T20:34:46;2.60;;;0.97;;
78013;SDS011;67222;50.182;8.734;2023-03-31T20:37:12;2.67;;;0.52;;
78013;SDS011;67222;50.182;8.734;2023-03-31T20:39:38;1.60;;;0.52;;
78013;SDS011;67222;50.182;8.734;2023-03-31T20:42:03;3.53;;;0.70;;
78013;SDS011;67222;50.182;8.734;2023-03-31T20:44:28;3.87;;;0.60;;
78013;SDS011;67222;50.182;8.734;2023-03-31T20:46:53;1.17;;;0.40;;
78013;SDS011;67222;50.182;8.734;2023-03-31T20:49:19;4.65;;;0.63;;
78013;SDS011;67222;50.182;8.734;2023-03-31T20:51:45;6.43;;;2.50;;
78013;SDS011;67222;50.182;8.734;2023-03-31T20:54:11;3.88;;;0.57;;
78013;SDS011;67222;50.182;8.734;2023-03-31T20:56:37;2.08;;;0.50;;
78013;SDS011;67222;50.182;8.734;2023-03-31T20:59:05;2.45;;;0.50;;
78013;SDS011;67222;50.182;8.734;2023-03-31T21:01:33;3.70;;;0.63;;
78013;SDS011;67222;50.182;8.734;2023-03-31T21:04:00;2.80;;;0.63;;
78013;SDS011;67222;50.182;8.734;2023-03-31T21:06:27;3.05;;;0.52;;
78013;SDS011;67222;50.182;8.734;2023-03-31T21:08:54;2.10;;;0.57;;
78013;SDS011;67222;50.182;8.734;2023-03-31T21:11:21;4.10;;;0.60;;
78013;SDS011;67222;50.182;8.734;2023-03-31T21:13:48;2.30;;;0.52;;
78013;SDS011;67222;50.182;8.734;2023-03-31T21:16:13;2.40;;;0.50;;
78013;SDS011;67222;50.182;8.734;2023-03-31T21:18:39;0.45;;;0.25;;
78013;SDS011;67222;50.182;8.734;2023-03-31T21:21:06;2.58;;;0.50;;
78013;SDS011;67222;50.182;8.734;2023-03-31T21:23:35;2.50;;;0.50;;
78013;SDS011;67222;50.182;8.734;2023-03-31T21:26:00;2.00;;;0.40;;
78013;SDS011;67222;50.182;8.734;2023-03-31T21:28:28;1.33;;;0.50;;
78013;SDS011;67222;50.182;8.734;2023-03-31T21:30:59;2.60;;;0.40;;
78013;SDS011;67222;50.182;8.734;2023-03-31T21:33:32;2.40;;;0.57;;
78013;SDS011;67222;50.182;8.734;2023-03-31T21:35:59;2.90;;;0.50;;
78013;SDS011;67222;50.182;8.734;2023-03-31T21:38:25;3.80;;;0.60;;
78013;SDS011;67222;50.182;8.734;2023-03-31T21:40:52;1.95;;;0.60;;
78013;SDS011;67222;50.182;8.734;2023-03-31T21:43:19;1.38;;;0.52;;
78013;SDS011;67222;50.182;8.734;2023-03-31T21:45:46;2.38;;;0.80;;